Time;durP1;ratioP1;P1;durP2;ratioP2;P2;SDS_P1;SDS_P2;PMS_P1;PMS_P2;Temp;Humidity;BMP_temperature;BMP_pressure;BME280_temperature;BME280_humidity;BME280_pressure;Samples;Min_cycle;Max_cycle;Signal;HPM_P1;HPM_P2
2022/11/09 00:02:22;;;;;;;3.10;1.80;;;15.60;99.90;;;;;;5078221;28;20494;-39
2022/11/09 00:04:47;;;;;;;2.60;1.73;;;15.60;99.90;;;;;;5068590;28;20419;-39
2022/11/09 00:07:13;;;;;;;2.20;1.60;;;15.60;99.90;;;;;;5076072;28;20430;-38
2022/11/09 00:09:38;;;;;;;2.40;1.50;;;15.60;99.90;;;;;;5083393;28;20613;-39
2022/11/09 00:12:06;;;;;;;2.53;1.90;;;15.60;99.90;;;;;;5067948;28;20193;-39
2022/11/09 00:14:32;;;;;;;5.37;2.00;;;15.60;99.90;;;;;;5068505;28;20189;-39
2022/11/09 00:16:59;;;;;;;2.67;1.53;;;15.60;99.90;;;;;;5068841;28;20483;-39
2022/11/09 00:19:25;;;;;;;7.13;1.67;;;15.60;99.90;;;;;;5067991;28;20415;-39
2022/11/09 00:21:52;;;;;;;1.77;1.60;;;15.60;99.90;;;;;;5069058;28;20419;-39
2022/11/09 00:24:17;;;;;;;2.00;1.30;;;15.60;99.90;;;;;;5072325;28;20192;-39
2022/11/09 00:26:43;;;;;;;2.10;1.33;;;15.60;99.90;;;;;;5068417;28;20832;-39
2022/11/09 00:29:09;;;;;;;1.93;1.57;;;15.60;99.90;;;;;;5068096;28;20636;-39
2022/11/09 00:31:35;;;;;;;2.30;2.10;;;15.60;99.90;;;;;;5068788;28;20921;-39
2022/11/09 00:34:00;;;;;;;3.17;1.73;;;15.50;99.90;;;;;;5066495;28;20193;-38
2022/11/09 00:36:27;;;;;;;1.77;1.53;;;15.50;99.90;;;;;;5068457;28;20192;-39
2022/11/09 00:38:55;;;;;;;2.70;1.63;;;15.60;99.90;;;;;;5068212;28;20184;-38
2022/11/09 00:41:22;;;;;;;2.60;1.57;;;15.50;99.90;;;;;;5068359;28;20415;-39
2022/11/09 00:43:48;;;;;;;1.50;1.33;;;15.50;99.90;;;;;;5075915;28;20463;-39
2022/11/09 00:46:13;;;;;;;2.87;1.50;;;15.50;99.90;;;;;;5084957;28;20446;-39
2022/11/09 00:48:39;;;;;;;1.70;1.50;;;15.50;99.90;;;;;;5088251;28;20454;-38
2022/11/09 00:51:05;;;;;;;1.87;1.10;;;15.40;99.90;;;;;;5087279;28;20203;-38
2022/11/09 00:53:31;;;;;;;1.60;1.50;;;15.50;99.90;;;;;;5088546;28;20410;-38
2022/11/09 00:56:15;;;;;;;1.47;1.27;;;15.50;99.90;;;;;;5088733;28;20417;-39
2022/11/09 00:58:41;;;;;;;1.80;1.40;;;15.50;99.90;;;;;;5088780;28;20414;-39
2022/11/09 01:01:12;;;;;;;1.50;1.20;;;15.50;99.90;;;;;;5086802;28;20426;-38
2022/11/09 01:03:38;;;;;;;1.80;1.40;;;15.40;99.90;;;;;;5088484;28;20462;-39
2022/11/09 01:06:04;;;;;;;1.77;1.30;;;15.40;99.90;;;;;;5088417;28;20460;-38
2022/11/09 01:08:29;;;;;;;2.53;1.10;;;15.40;99.90;;;;;;5088106;28;20462;-39
2022/11/09 01:10:55;;;;;;;1.30;1.10;;;15.40;99.90;;;;;;5088340;28;20179;-39
2022/11/09 01:13:21;;;;;;;1.67;1.50;;;15.40;99.90;;;;;;5087984;28;20420;-39
2022/11/09 01:15:50;;;;;;;1.30;1.10;;;15.40;99.90;;;;;;5088365;28;20423;-38
2022/11/09 01:18:17;;;;;;;2.23;1.30;;;15.40;99.90;;;;;;5088340;28;20972;-39
2022/11/09 01:20:44;;;;;;;1.83;1.33;;;15.40;99.90;;;;;;5088145;28;20444;-39
2022/11/09 01:23:12;;;;;;;2.40;1.17;;;15.30;99.90;;;;;;5087766;28;20457;-39
2022/11/09 01:25:38;;;;;;;1.57;1.47;;;15.30;99.90;;;;;;5088432;28;20421;-39
2022/11/09 01:28:05;;;;;;;2.60;1.20;;;15.30;99.90;;;;;;5088451;28;20569;-39
2022/11/09 01:30:33;;;;;;;1.57;1.40;;;15.30;99.90;;;;;;5087900;28;20419;-39
2022/11/09 01:33:01;;;;;;;1.97;1.37;;;15.20;99.90;;;;;;5086440;28;20419;-39
2022/11/09 01:35:27;;;;;;;1.70;1.43;;;15.20;99.90;;;;;;5088629;28;20417;-39
2022/11/09 01:37:52;;;;;;;4.37;1.20;;;15.30;99.90;;;;;;5090788;28;20921;-38
2022/11/09 01:40:18;;;;;;;1.40;1.30;;;15.30;99.90;;;;;;5091876;28;20185;-38
2022/11/09 01:42:44;;;;;;;3.30;1.50;;;15.30;99.90;;;;;;5092228;28;20210;-39
2022/11/09 01:45:20;;;;;;;1.60;1.37;;;15.30;99.90;;;;;;5092164;28;20180;-38
2022/11/09 01:47:49;;;;;;;1.20;1.10;;;15.20;99.90;;;;;;5092250;28;20653;-39
2022/11/09 01:50:22;;;;;;;1.87;1.37;;;15.20;99.90;;;;;;5091871;28;20409;-39
2022/11/09 01:52:48;;;;;;;1.73;1.37;;;15.30;99.90;;;;;;5091911;28;20501;-38
2022/11/09 01:55:17;;;;;;;1.43;1.30;;;15.20;99.90;;;;;;5091476;28;20422;-39
2022/11/09 01:57:54;;;;;;;2.63;1.40;;;15.20;99.90;;;;;;5092283;28;20410;-39
2022/11/09 02:00:20;;;;;;;2.30;1.50;;;15.20;99.90;;;;;;5091603;28;20753;-39
2022/11/09 02:02:59;;;;;;;2.50;1.60;;;15.20;99.90;;;;;;5091690;28;20543;-38
2022/11/09 02:05:29;;;;;;;2.30;1.57;;;15.20;99.90;;;;;;5091542;28;20654;-39
2022/11/09 02:07:56;;;;;;;3.50;1.73;;;15.20;99.90;;;;;;5091671;28;20501;-38
2022/11/09 02:10:30;;;;;;;1.70;1.10;;;15.20;99.90;;;;;;5091392;28;20446;-39
2022/11/09 02:12:58;;;;;;;1.60;1.30;;;15.20;99.90;;;;;;5091427;28;20418;-39
2022/11/09 02:15:25;;;;;;;3.27;1.30;;;15.20;99.90;;;;;;5091562;28;20414;-39
2022/11/09 02:17:53;;;;;;;2.63;1.43;;;15.20;99.90;;;;;;5091459;28;20415;-39
2022/11/09 02:20:19;;;;;;;2.80;1.70;;;15.20;99.90;;;;;;5091241;28;20418;-39
2022/11/09 02:22:45;;;;;;;1.83;1.47;;;15.30;99.90;;;;;;5091281;28;20461;-39
2022/11/09 02:25:14;;;;;;;1.63;1.40;;;15.20;99.90;;;;;;5091472;28;20432;-39
2022/11/09 02:27:42;;;;;;;2.97;1.53;;;15.20;99.90;;;;;;5091452;28;20430;-38
2022/11/09 02:30:08;;;;;;;1.90;1.20;;;15.20;99.90;;;;;;5091058;28;20446;-39
2022/11/09 02:32:34;;;;;;;4.10;1.57;;;15.20;99.90;;;;;;5089212;28;20426;-39
2022/11/09 02:35:00;;;;;;;1.93;1.10;;;15.20;99.90;;;;;;5091048;28;20398;-38
2022/11/09 02:37:33;;;;;;;2.20;1.37;;;15.20;99.90;;;;;;5089760;28;20675;-39
2022/11/09 02:40:01;;;;;;;3.33;1.40;;;15.20;99.90;;;;;;5090993;28;20267;-39
2022/11/09 02:42:27;;;;;;;1.40;1.10;;;15.20;99.90;;;;;;5090789;28;20926;-38
2022/11/09 02:44:58;;;;;;;2.93;1.70;;;15.10;99.90;;;;;;5090997;28;20490;-39
2022/11/09 02:47:24;;;;;;;2.43;1.63;;;15.10;99.90;;;;;;5090683;28;20756;-39
2022/11/09 02:49:50;;;;;;;4.50;2.40;;;15.10;99.90;;;;;;5088678;28;20425;-39
2022/11/09 02:52:16;;;;;;;1.50;1.40;;;15.10;99.90;;;;;;5090815;28;20415;-39
2022/11/09 02:54:42;;;;;;;2.33;1.20;;;15.10;99.90;;;;;;5090274;28;20192;-39
2022/11/09 02:57:08;;;;;;;2.20;1.10;;;15.10;99.90;;;;;;5090895;28;20411;-38
2022/11/09 02:59:33;;;;;;;2.13;1.13;;;15.10;99.90;;;;;;5090469;28;20539;-39
2022/11/09 03:01:59;;;;;;;3.40;1.60;;;15.10;99.90;;;;;;5090502;28;20285;-38
2022/11/09 03:04:25;;;;;;;2.30;2.00;;;15.00;99.90;;;;;;5090623;28;20623;-38
2022/11/09 03:06:50;;;;;;;2.63;1.23;;;15.00;99.90;;;;;;5090677;28;20208;-39
2022/11/09 03:09:16;;;;;;;3.20;1.57;;;15.00;99.90;;;;;;5090063;28;20695;-39
2022/11/09 03:11:42;;;;;;;2.30;1.70;;;15.00;99.90;;;;;;5090545;28;20188;-39
2022/11/09 03:14:11;;;;;;;1.40;1.13;;;15.00;99.90;;;;;;5090222;28;20188;-40
2022/11/09 03:16:38;;;;;;;3.43;1.67;;;15.00;99.90;;;;;;5090340;28;20211;-38
2022/11/09 03:19:04;;;;;;;3.70;1.63;;;15.00;99.90;;;;;;5090013;28;20398;-39
2022/11/09 03:21:29;;;;;;;2.33;1.30;;;15.00;99.90;;;;;;5090641;28;20414;-38
2022/11/09 03:23:55;;;;;;;3.17;1.60;;;15.00;99.90;;;;;;5090023;28;21025;-39
2022/11/09 03:26:21;;;;;;;3.83;1.37;;;15.10;99.90;;;;;;5090162;28;20187;-39
2022/11/09 03:28:47;;;;;;;2.40;1.43;;;15.10;99.90;;;;;;5089908;28;20184;-39
2022/11/09 03:31:13;;;;;;;2.47;1.63;;;15.00;99.90;;;;;;5089802;28;20417;-38
2022/11/09 03:33:39;;;;;;;1.90;1.13;;;15.10;99.90;;;;;;5089107;28;20180;-38
2022/11/09 03:36:05;;;;;;;2.80;1.40;;;15.00;99.90;;;;;;5090027;28;20413;-38
2022/11/09 03:38:31;;;;;;;1.57;1.33;;;15.10;99.90;;;;;;5089961;28;20259;-39
2022/11/09 03:40:58;;;;;;;1.83;1.17;;;15.00;99.90;;;;;;5089887;28;21026;-39
2022/11/09 03:43:24;;;;;;;4.60;1.60;;;15.00;99.90;;;;;;5089898;28;20203;-39
2022/11/09 03:45:50;;;;;;;2.53;2.20;;;15.00;99.90;;;;;;5089980;28;20962;-39
2022/11/09 03:48:15;;;;;;;1.70;1.10;;;15.00;99.90;;;;;;5089778;28;20282;-38
2022/11/09 03:50:41;;;;;;;3.30;1.83;;;15.00;99.90;;;;;;5089690;28;20200;-39
2022/11/09 03:53:08;;;;;;;4.30;1.50;;;15.00;99.90;;;;;;5089528;28;20507;-39
2022/11/09 03:55:34;;;;;;;3.57;1.70;;;15.00;99.90;;;;;;5089817;28;20493;-39
2022/11/09 03:58:00;;;;;;;2.67;1.23;;;15.00;99.90;;;;;;5089390;28;20458;-39
2022/11/09 04:00:27;;;;;;;1.87;1.40;;;15.00;99.90;;;;;;5088154;28;20422;-39
2022/11/09 04:02:52;;;;;;;3.57;1.47;;;15.00;99.90;;;;;;5089142;28;20549;-38
2022/11/09 04:05:19;;;;;;;1.63;1.13;;;15.00;99.90;;;;;;5089433;28;20513;-40
2022/11/09 04:07:53;;;;;;;3.47;1.63;;;15.10;99.90;;;;;;5089435;28;20168;-39
2022/11/09 04:10:19;;;;;;;2.50;1.30;;;15.10;99.90;;;;;;5089010;28;20426;-39
2022/11/09 04:12:45;;;;;;;1.40;1.30;;;15.10;99.90;;;;;;5088799;28;20430;-39
2022/11/09 04:15:12;;;;;;;1.27;1.17;;;15.10;99.90;;;;;;5089708;28;20414;-40
2022/11/09 04:17:38;;;;;;;2.00;1.37;;;15.10;99.90;;;;;;5089379;28;20414;-39
2022/11/09 04:20:06;;;;;;;2.37;1.40;;;15.10;99.90;;;;;;5089188;28;20472;-39
2022/11/09 04:22:31;;;;;;;1.93;1.30;;;15.10;99.90;;;;;;5089276;28;20261;-39
2022/11/09 04:24:57;;;;;;;3.30;1.40;;;15.10;99.90;;;;;;5089110;28;20407;-39
2022/11/09 04:27:23;;;;;;;2.50;1.20;;;15.00;99.90;;;;;;5088851;28;20179;-39
2022/11/09 04:29:48;;;;;;;1.70;1.30;;;15.00;99.90;;;;;;5088675;28;20180;-38
2022/11/09 04:32:14;;;;;;;3.63;1.20;;;14.90;99.90;;;;;;5088263;28;20263;-38
2022/11/09 04:34:42;;;;;;;4.40;2.23;;;15.00;99.90;;;;;;5089033;28;20216;-39
2022/11/09 04:37:09;;;;;;;2.30;1.07;;;14.90;99.90;;;;;;5089033;28;20185;-38
2022/11/09 04:39:35;;;;;;;6.10;1.40;;;15.00;99.90;;;;;;5088568;28;20418;-39
2022/11/09 04:42:00;;;;;;;2.77;1.53;;;15.00;99.90;;;;;;5088624;28;20464;-38
2022/11/09 04:44:27;;;;;;;3.23;1.60;;;15.00;99.90;;;;;;5088498;28;20242;-39
2022/11/09 04:46:53;;;;;;;2.10;1.13;;;14.90;99.90;;;;;;5087630;28;20177;-38
2022/11/09 04:49:19;;;;;;;3.43;1.30;;;15.00;99.90;;;;;;5088442;28;20407;-38
2022/11/09 04:51:45;;;;;;;2.73;1.50;;;15.00;99.90;;;;;;5088583;28;20909;-39
2022/11/09 04:54:11;;;;;;;2.57;1.20;;;15.00;99.90;;;;;;5088849;28;20173;-39
2022/11/09 04:56:36;;;;;;;4.17;1.30;;;15.00;99.90;;;;;;5087101;28;20187;-38
2022/11/09 04:59:02;;;;;;;3.53;1.60;;;15.00;99.90;;;;;;5088390;28;20176;-39
2022/11/09 05:01:27;;;;;;;2.37;1.40;;;15.00;99.90;;;;;;5088698;28;20208;-39
2022/11/09 05:03:53;;;;;;;3.87;1.47;;;15.00;99.90;;;;;;5088215;28;20212;-38
2022/11/09 05:06:31;;;;;;;2.20;1.37;;;15.00;99.90;;;;;;5088805;28;20663;-39
2022/11/09 05:09:06;;;;;;;1.50;1.00;;;14.90;99.90;;;;;;5088100;28;20177;-38
2022/11/09 05:11:34;;;;;;;2.30;1.40;;;14.90;99.90;;;;;;5088103;28;20770;-38
2022/11/09 05:14:00;;;;;;;6.47;1.70;;;14.90;99.90;;;;;;5088498;28;20417;-39
2022/11/09 05:16:27;;;;;;;1.60;1.20;;;14.90;99.90;;;;;;5088346;28;20438;-39
2022/11/09 05:18:52;;;;;;;6.30;1.70;;;14.90;99.90;;;;;;5088028;28;20494;-39
2022/11/09 05:21:18;;;;;;;2.00;1.37;;;14.90;99.90;;;;;;5088178;28;20992;-39
2022/11/09 05:23:59;;;;;;;2.40;1.77;;;14.90;99.90;;;;;;5088138;28;20551;-39
2022/11/09 05:26:32;;;;;;;3.50;1.60;;;14.90;99.90;;;;;;5088407;28;20729;-38
2022/11/09 05:29:00;;;;;;;5.70;2.00;;;14.80;99.90;;;;;;5087957;28;20410;-39
2022/11/09 05:31:27;;;;;;;2.60;1.63;;;14.80;99.90;;;;;;5088250;28;20437;-39
2022/11/09 05:33:53;;;;;;;3.00;1.87;;;14.80;99.90;;;;;;5086755;28;20430;-38
2022/11/09 05:36:20;;;;;;;4.07;1.27;;;14.80;99.90;;;;;;5088428;28;20517;-39
2022/11/09 05:38:46;;;;;;;3.07;1.50;;;14.70;99.90;;;;;;5087689;28;20403;-38
2022/11/09 05:41:12;;;;;;;4.50;2.00;;;14.70;99.90;;;;;;5082569;28;20466;-40
2022/11/09 05:43:37;;;;;;;2.87;1.60;;;14.70;99.90;;;;;;5076954;28;20209;-39
2022/11/09 05:46:03;;;;;;;1.53;1.37;;;14.70;99.90;;;;;;5084612;28;20981;-39
2022/11/09 05:48:29;;;;;;;3.73;1.63;;;14.60;99.90;;;;;;5078298;28;20188;-39
2022/11/09 05:50:54;;;;;;;2.53;1.40;;;14.60;99.90;;;;;;5082220;28;20262;-39
2022/11/09 05:53:20;;;;;;;4.80;2.27;;;14.60;99.90;;;;;;5087652;28;20263;-40
2022/11/09 05:55:46;;;;;;;4.77;1.67;;;14.60;99.90;;;;;;5086799;28;20188;-39
2022/11/09 05:58:11;;;;;;;4.53;2.13;;;14.60;99.90;;;;;;5087987;28;20230;-40
2022/11/09 06:00:37;;;;;;;3.80;1.30;;;14.60;99.90;;;;;;5085636;28;20199;-40
2022/11/09 06:03:08;;;;;;;2.77;1.73;;;14.60;99.90;;;;;;5081236;28;20689;-40
2022/11/09 06:05:35;;;;;;;2.97;1.50;;;14.50;99.90;;;;;;5087775;28;20481;-39
2022/11/09 06:08:02;;;;;;;3.90;1.10;;;14.50;99.90;;;;;;5088120;28;20783;-39
2022/11/09 06:10:28;;;;;;;3.43;1.43;;;14.50;99.90;;;;;;5087426;28;20417;-39
2022/11/09 06:12:53;;;;;;;2.60;1.63;;;14.50;99.90;;;;;;5087982;28;20426;-38
2022/11/09 06:15:19;;;;;;;3.90;1.50;;;14.40;99.90;;;;;;5087774;28;20203;-40
2022/11/09 06:17:51;;;;;;;2.90;1.40;;;14.30;99.90;;;;;;5087892;28;20341;-39
2022/11/09 06:20:16;;;;;;;3.37;1.70;;;14.40;99.90;;;;;;5087753;28;20177;-39
2022/11/09 06:22:42;;;;;;;4.83;2.00;;;14.30;99.90;;;;;;5086180;28;20600;-38
2022/11/09 06:25:08;;;;;;;4.30;1.90;;;14.30;99.90;;;;;;5108351;28;20638;-39
2022/11/09 06:27:33;;;;;;;2.50;1.50;;;14.30;99.90;;;;;;5103848;28;20194;-39
2022/11/09 06:29:59;;;;;;;2.70;1.50;;;14.30;99.90;;;;;;5082335;28;20265;-39
2022/11/09 06:32:25;;;;;;;3.83;1.83;;;14.30;99.90;;;;;;5086669;28;20410;-38
2022/11/09 06:34:50;;;;;;;4.37;1.90;;;14.30;99.90;;;;;;5091258;28;20216;-38
2022/11/09 06:37:16;;;;;;;3.13;1.50;;;14.30;99.90;;;;;;5087714;28;20270;-38
2022/11/09 06:39:43;;;;;;;5.43;1.87;;;14.20;99.90;;;;;;5090054;28;20215;-39
2022/11/09 06:42:08;;;;;;;6.20;1.80;;;14.20;99.90;;;;;;5090983;28;20482;-39
2022/11/09 06:44:34;;;;;;;1.23;1.13;;;14.20;99.90;;;;;;5089493;28;21173;-39
2022/11/09 06:47:00;;;;;;;1.50;1.40;;;14.20;99.90;;;;;;5089743;28;20172;-39
2022/11/09 06:49:25;;;;;;;5.43;1.20;;;14.10;99.90;;;;;;5088346;28;20574;-39
2022/11/09 06:51:51;;;;;;;3.20;1.63;;;14.20;99.90;;;;;;5089843;28;20769;-38
2022/11/09 06:54:17;;;;;;;4.93;1.63;;;14.20;99.90;;;;;;5087180;28;20192;-38
2022/11/09 06:56:42;;;;;;;4.27;1.50;;;14.20;99.90;;;;;;5090858;28;20276;-39
2022/11/09 06:59:08;;;;;;;11.90;2.90;;;14.10;99.90;;;;;;5090454;28;20271;-39
2022/11/09 07:01:34;;;;;;;2.93;1.33;;;14.10;99.90;;;;;;5090524;28;20172;-39
2022/11/09 07:03:59;;;;;;;3.70;1.40;;;14.20;99.90;;;;;;5090648;28;20212;-39
2022/11/09 07:06:25;;;;;;;4.43;1.40;;;14.20;99.90;;;;;;5090740;28;20628;-39
2022/11/09 07:08:54;;;;;;;3.10;1.60;;;14.10;99.90;;;;;;5088150;28;20196;-39
2022/11/09 07:11:20;;;;;;;3.20;1.00;;;14.10;99.90;;;;;;5087144;28;20189;-39
2022/11/09 07:13:49;;;;;;;6.80;2.07;;;14.10;99.90;;;;;;5090025;28;20994;-39
2022/11/09 07:16:18;;;;;;;3.60;1.33;;;14.00;99.90;;;;;;5090003;28;20207;-39
2022/11/09 07:18:44;;;;;;;5.90;1.30;;;14.00;99.90;;;;;;5072230;28;20418;-39
2022/11/09 07:21:10;;;;;;;3.33;1.23;;;14.00;99.90;;;;;;5090300;28;20418;-39
2022/11/09 07:23:36;;;;;;;3.87;1.47;;;14.00;99.90;;;;;;5093985;28;20500;-39
2022/11/09 07:26:03;;;;;;;9.70;1.30;;;14.10;99.90;;;;;;5101672;28;20588;-40
2022/11/09 07:28:29;;;;;;;2.53;1.37;;;14.10;99.90;;;;;;5099989;28;20475;-40
2022/11/09 07:30:57;;;;;;;5.50;1.83;;;14.00;99.90;;;;;;5100729;28;20413;-39
2022/11/09 07:33:23;;;;;;;3.67;1.00;;;14.10;99.90;;;;;;5089233;28;20610;-39
2022/11/09 07:35:49;;;;;;;4.00;1.17;;;14.10;99.90;;;;;;5071588;28;20498;-40
2022/11/09 07:38:15;;;;;;;4.70;1.73;;;14.00;99.90;;;;;;5090400;28;20506;-39
2022/11/09 07:40:41;;;;;;;1.73;0.93;;;14.00;99.90;;;;;;5091936;28;20229;-39
2022/11/09 07:43:07;;;;;;;2.87;1.20;;;14.10;99.90;;;;;;5109833;28;20458;-39
2022/11/09 07:45:34;;;;;;;2.80;1.40;;;14.10;99.90;;;;;;5099457;28;20445;-39
2022/11/09 07:48:03;;;;;;;1.90;1.43;;;14.10;99.90;;;;;;5089972;28;20884;-39
2022/11/09 07:50:30;;;;;;;2.47;1.20;;;14.10;99.90;;;;;;5099690;28;20418;-40
2022/11/09 07:52:58;;;;;;;3.23;1.20;;;14.10;99.90;;;;;;5100263;28;20421;-39
2022/11/09 07:55:25;;;;;;;1.73;1.10;;;14.10;99.90;;;;;;5098729;28;20509;-39
2022/11/09 07:57:55;;;;;;;2.73;1.13;;;14.10;99.90;;;;;;5098845;28;20509;-39
2022/11/09 08:00:21;;;;;;;2.20;1.00;;;14.10;99.90;;;;;;5100824;28;20414;-38
2022/11/09 08:02:50;;;;;;;5.53;1.10;;;14.10;99.90;;;;;;5109610;28;20994;-39
2022/11/09 08:05:16;;;;;;;1.80;1.00;;;14.10;99.90;;;;;;5099835;28;20245;-39
2022/11/09 08:07:41;;;;;;;2.40;1.40;;;14.00;99.90;;;;;;5091468;28;21136;-39
2022/11/09 08:10:07;;;;;;;3.20;1.10;;;14.10;99.90;;;;;;5097442;28;21058;-39
2022/11/09 08:12:33;;;;;;;2.70;1.23;;;14.10;99.90;;;;;;5095069;28;20230;-40
2022/11/09 08:14:59;;;;;;;4.10;1.47;;;14.30;99.90;;;;;;5098999;28;20788;-39
2022/11/09 08:17:24;;;;;;;5.63;2.07;;;14.30;99.90;;;;;;5093097;28;20192;-39
2022/11/09 08:19:50;;;;;;;3.47;1.10;;;14.40;99.90;;;;;;5089142;28;20180;-38
2022/11/09 08:22:15;;;;;;;3.03;1.50;;;14.30;99.90;;;;;;5089186;28;20200;-39
2022/11/09 08:24:41;;;;;;;3.50;1.50;;;14.30;99.90;;;;;;5089262;28;20539;-39
2022/11/09 08:27:07;;;;;;;4.10;1.50;;;14.30;99.90;;;;;;5089437;28;20188;-40
2022/11/09 08:29:32;;;;;;;2.57;1.50;;;14.30;99.90;;;;;;5089113;28;20188;-39
2022/11/09 08:31:58;;;;;;;5.10;1.10;;;14.30;99.90;;;;;;5089182;28;20177;-38
2022/11/09 08:34:24;;;;;;;3.50;1.30;;;14.30;99.90;;;;;;5087912;28;20233;-39
2022/11/09 08:36:50;;;;;;;2.97;1.80;;;14.40;99.90;;;;;;5089157;28;20176;-39
2022/11/09 08:39:15;;;;;;;3.33;1.57;;;14.60;99.90;;;;;;5088621;28;20411;-38
2022/11/09 08:41:41;;;;;;;3.77;1.30;;;14.70;99.90;;;;;;5088869;28;20214;-39
2022/11/09 08:44:06;;;;;;;1.80;1.50;;;14.80;99.90;;;;;;5088307;28;20215;-39
2022/11/09 08:46:32;;;;;;;2.17;1.33;;;14.80;99.90;;;;;;5088039;28;20184;-39
2022/11/09 08:48:58;;;;;;;3.50;1.40;;;15.00;99.90;;;;;;5088990;28;20180;-38
2022/11/09 08:51:23;;;;;;;4.30;1.40;;;15.20;99.90;;;;;;5088790;28;20271;-40
2022/11/09 08:53:50;;;;;;;2.50;1.30;;;15.40;99.90;;;;;;5104591;28;20237;-39
2022/11/09 08:56:17;;;;;;;4.13;1.63;;;15.50;99.90;;;;;;5108709;28;20241;-40
2022/11/09 08:58:44;;;;;;;2.53;1.10;;;15.70;99.90;;;;;;5107289;28;20485;-40
2022/11/09 09:01:11;;;;;;;1.40;1.17;;;15.80;99.90;;;;;;5108967;28;20868;-39
2022/11/09 09:03:37;;;;;;;3.90;1.73;;;15.90;99.90;;;;;;5108713;28;20453;-39
2022/11/09 09:06:07;;;;;;;3.70;1.53;;;16.10;99.90;;;;;;5108753;28;20806;-39
2022/11/09 09:08:33;;;;;;;2.90;1.20;;;16.10;99.90;;;;;;5108441;28;20436;-39
2022/11/09 09:11:03;;;;;;;3.10;1.60;;;16.20;99.90;;;;;;5108562;28;20409;-39
2022/11/09 09:13:30;;;;;;;4.40;1.73;;;16.30;99.90;;;;;;5108739;28;20418;-39
2022/11/09 09:15:56;;;;;;;3.83;1.20;;;16.50;99.90;;;;;;5108793;28;20810;-39
2022/11/09 09:18:22;;;;;;;2.50;1.30;;;16.80;99.90;;;;;;5108852;28;20413;-39
2022/11/09 09:20:48;;;;;;;3.67;1.40;;;17.00;99.90;;;;;;5108737;28;20414;-39
2022/11/09 09:23:15;;;;;;;5.30;1.17;;;17.10;99.90;;;;;;5097884;28;20789;-40
2022/11/09 09:25:42;;;;;;;2.10;1.23;;;17.20;99.90;;;;;;5087134;28;20324;-39
2022/11/09 09:28:08;;;;;;;2.60;1.20;;;17.30;99.90;;;;;;5088192;28;20505;-39
2022/11/09 09:30:33;;;;;;;8.53;2.07;;;17.40;99.90;;;;;;5087897;28;20502;-39
2022/11/09 09:33:00;;;;;;;2.70;1.13;;;17.40;99.90;;;;;;5087108;28;20218;-39
2022/11/09 09:35:27;;;;;;;2.40;1.60;;;17.40;99.90;;;;;;5088313;28;20185;-40
2022/11/09 09:37:53;;;;;;;2.83;1.60;;;17.40;99.90;;;;;;5087939;28;20450;-40
2022/11/09 09:40:32;;;;;;;1.53;1.10;;;17.40;99.90;;;;;;5087877;28;20471;-39
2022/11/09 09:42:58;;;;;;;2.60;1.37;;;17.40;99.90;;;;;;5087751;28;20454;-39
2022/11/09 09:45:29;;;;;;;5.43;1.47;;;17.40;99.90;;;;;;5088312;28;20812;-39
2022/11/09 09:47:55;;;;;;;2.03;1.37;;;17.30;99.90;;;;;;5088433;28;20181;-39
2022/11/09 09:50:44;;;;;;;3.23;1.67;;;17.30;99.90;;;;;;5087586;28;20491;-40
2022/11/09 09:53:13;;;;;;;3.20;1.30;;;17.20;99.90;;;;;;5087983;28;20222;-40
2022/11/09 09:55:42;;;;;;;2.23;1.33;;;17.20;99.90;;;;;;5087776;28;20473;-39
2022/11/09 09:58:30;;;;;;;4.03;1.30;;;17.10;99.90;;;;;;5089294;28;20433;-39
2022/11/09 10:01:03;;;;;;;5.93;1.63;;;17.10;99.90;;;;;;5091892;28;20425;-39
2022/11/09 10:03:30;;;;;;;3.50;1.23;;;17.00;99.90;;;;;;5091667;28;20553;-39
2022/11/09 10:06:26;;;;;;;3.90;1.20;;;17.00;99.90;;;;;;5091750;28;20495;-39
2022/11/09 10:09:08;;;;;;;3.20;1.37;;;16.80;99.90;;;;;;5091605;28;20413;-39
2022/11/09 10:12:35;;;;;;;2.20;0.90;;;16.70;99.90;;;;;;5090405;28;20487;-40
2022/11/09 10:15:24;;;;;;;4.63;1.23;;;16.50;99.90;;;;;;5043074;28;20414;-39
2022/11/09 10:18:24;;;;;;;2.97;1.60;;;16.40;99.90;;;;;;5091927;28;20814;-39
2022/11/09 10:21:22;;;;;;;4.07;1.40;;;16.30;99.90;;;;;;5091787;28;20409;-40
2022/11/09 10:24:32;;;;;;;2.80;1.30;;;16.20;99.90;;;;;;5089884;28;20450;-39
2022/11/09 10:27:00;;;;;;;3.37;1.47;;;16.20;99.90;;;;;;5091357;28;20418;-39
2022/11/09 10:29:38;;;;;;;3.40;1.30;;;16.20;99.90;;;;;;5091040;28;20992;-38
2022/11/09 10:32:21;;;;;;;4.90;1.20;;;16.20;99.90;;;;;;5091355;28;20414;-39
2022/11/09 10:35:00;;;;;;;3.40;1.30;;;16.30;99.90;;;;;;5090047;28;20418;-39
2022/11/09 10:37:39;;;;;;;2.27;1.07;;;16.30;99.90;;;;;;5091562;28;20402;-39
2022/11/09 10:40:25;;;;;;;8.63;1.87;;;16.20;99.90;;;;;;5090719;28;20411;-38
2022/11/09 10:43:04;;;;;;;6.63;1.50;;;16.20;99.90;;;;;;5090448;28;20457;-39
2022/11/09 10:45:30;;;;;;;3.10;1.40;;;16.10;99.90;;;;;;5091296;28;20858;-39
2022/11/09 10:47:56;;;;;;;5.17;1.57;;;16.10;99.90;;;;;;5091101;28;20418;-39
2022/11/09 10:50:31;;;;;;;4.40;1.37;;;16.00;99.90;;;;;;5091003;28;20260;-39
2022/11/09 10:53:21;;;;;;;4.63;1.93;;;16.00;99.90;;;;;;5090760;28;20430;-39
2022/11/09 10:55:57;;;;;;;2.10;1.53;;;15.90;99.90;;;;;;5090822;28;20422;-40
2022/11/09 10:58:34;;;;;;;2.67;1.30;;;16.00;99.90;;;;;;5090537;28;20466;-38
2022/11/09 11:01:23;;;;;;;2.60;1.40;;;16.00;99.90;;;;;;5090581;28;20411;-39
2022/11/09 11:03:52;;;;;;;10.37;2.13;;;16.00;99.90;;;;;;5090481;28;20484;-39
2022/11/09 11:06:20;;;;;;;3.60;1.50;;;16.00;99.90;;;;;;5090457;28;20445;-39
2022/11/09 11:08:52;;;;;;;5.60;1.50;;;15.90;99.90;;;;;;5090772;28;20415;-40
2022/11/09 11:11:43;;;;;;;2.40;1.23;;;15.80;99.90;;;;;;5090172;28;20454;-39
2022/11/09 11:14:26;;;;;;;2.03;1.30;;;15.90;99.90;;;;;;5086533;28;20430;-39
2022/11/09 11:16:52;;;;;;;4.33;1.53;;;16.00;99.90;;;;;;5090367;28;20402;-39
2022/11/09 11:19:35;;;;;;;3.57;1.20;;;16.00;99.90;;;;;;5088871;28;20450;-39
2022/11/09 11:22:26;;;;;;;4.30;1.30;;;16.10;99.90;;;;;;5090124;28;20504;-39
2022/11/09 11:24:59;;;;;;;2.90;0.97;;;16.10;99.90;;;;;;5070757;28;20400;-39
2022/11/09 11:27:52;;;;;;;2.93;1.20;;;16.20;99.90;;;;;;5070187;28;20412;-39
2022/11/09 11:30:27;;;;;;;3.17;1.47;;;16.20;99.90;;;;;;5069412;28;20861;-38
2022/11/09 11:32:56;;;;;;;2.73;1.00;;;16.20;99.90;;;;;;5068832;28;20418;-40
2022/11/09 11:35:26;;;;;;;2.50;0.80;;;16.30;99.90;;;;;;5069919;28;20466;-38
2022/11/09 11:38:17;;;;;;;3.93;1.20;;;16.30;99.90;;;;;;5069777;28;20419;-39
2022/11/09 11:41:01;;;;;;;6.33;1.57;;;16.40;99.90;;;;;;5069343;28;20528;-39
2022/11/09 11:44:04;;;;;;;2.63;1.17;;;16.40;99.90;;;;;;5069238;28;20458;-39
2022/11/09 11:46:52;;;;;;;2.90;1.20;;;16.40;99.90;;;;;;5088529;28;21052;-39
2022/11/09 11:49:51;;;;;;;4.57;1.10;;;16.50;99.90;;;;;;5089431;28;20406;-39
2022/11/09 11:52:26;;;;;;;2.07;0.90;;;16.50;99.90;;;;;;5089770;28;20446;-39
2022/11/09 11:55:09;;;;;;;2.53;0.83;;;16.60;99.90;;;;;;5089552;28;20940;-39
2022/11/09 11:57:58;;;;;;;1.43;0.87;;;16.60;99.90;;;;;;5088498;28;20446;-40
2022/11/09 12:00:24;;;;;;;3.47;2.23;;;16.70;99.90;;;;;;5059252;28;20979;-38
2022/11/09 12:03:03;;;;;;;3.20;0.97;;;16.60;99.90;;;;;;5089724;28;20482;-39
2022/11/09 12:05:50;;;;;;;4.47;1.57;;;16.60;99.90;;;;;;5089567;28;20213;-39
2022/11/09 12:08:43;;;;;;;5.90;1.60;;;16.60;99.90;;;;;;5089597;28;20409;-39
2022/11/09 12:11:35;;;;;;;2.20;0.90;;;16.60;99.90;;;;;;5089574;28;20407;-39
2022/11/09 12:14:28;;;;;;;1.90;0.77;;;16.60;99.90;;;;;;5089047;28;20502;-40
2022/11/09 12:17:03;;;;;;;5.00;1.20;;;16.50;99.90;;;;;;5087979;28;20406;-39
2022/11/09 12:19:47;;;;;;;3.37;1.20;;;16.40;99.90;;;;;;5089155;28;20800;-40
2022/11/09 12:22:33;;;;;;;2.37;1.00;;;16.40;99.90;;;;;;5087890;28;20411;-39
2022/11/09 12:25:21;;;;;;;4.13;0.90;;;16.40;99.90;;;;;;5089506;28;20418;-39
2022/11/09 12:28:25;;;;;;;3.13;1.83;;;16.30;99.90;;;;;;5089357;28;20778;-39
2022/11/09 12:31:03;;;;;;;3.23;0.87;;;16.30;99.90;;;;;;5087855;28;20414;-39
2022/11/09 12:33:55;;;;;;;2.70;1.03;;;16.30;99.90;;;;;;5087164;28;20427;-39
2022/11/09 12:36:47;;;;;;;5.60;1.87;;;16.30;99.90;;;;;;5089213;28;20421;-39
2022/11/09 12:39:21;;;;;;;3.53;0.80;;;16.30;99.90;;;;;;5086373;28;20917;-39
2022/11/09 12:41:49;;;;;;;4.67;1.20;;;16.30;99.90;;;;;;5089282;28;20428;-40
2022/11/09 12:44:23;;;;;;;3.53;1.00;;;16.30;99.90;;;;;;5088755;28;20500;-39
2022/11/09 12:46:59;;;;;;;4.80;1.17;;;16.30;99.90;;;;;;5088927;28;20456;-40
2022/11/09 12:49:38;;;;;;;2.40;1.30;;;16.30;99.90;;;;;;5086868;28;20410;-39
2022/11/09 12:52:09;;;;;;;3.07;1.23;;;16.30;99.90;;;;;;5088845;28;20407;-39
2022/11/09 12:54:39;;;;;;;4.40;1.13;;;16.20;99.90;;;;;;5088186;28;20897;-39
2022/11/09 12:57:08;;;;;;;3.40;0.90;;;16.10;99.90;;;;;;5087293;28;20927;-39
2022/11/09 12:59:44;;;;;;;5.70;1.30;;;16.00;99.90;;;;;;5088712;28;20410;-40
2022/11/09 13:02:37;;;;;;;3.17;0.93;;;16.00;99.90;;;;;;5088564;28;20414;-39
2022/11/09 13:05:25;;;;;;;4.80;1.43;;;15.90;99.90;;;;;;5088491;28;20434;-38